Time;durP1;ratioP1;P1;durP2;ratioP2;P2;SDS_P1;SDS_P2;PMS_P1;PMS_P2;Temp;Humidity;BMP_temperature;BMP_pressure;BME280_temperature;BME280_humidity;BME280_pressure;Samples;Min_cycle;Max_cycle;Signal;HPM_P1;HPM_P2
2024/03/03 00:02:47;;;;;;;7.57;4.30;;;;;;;10.69;100.00;99725.78;5119140;27;20142;-71
2024/03/03 00:05:35;;;;;;;8.05;4.18;;;;;;;10.69;100.00;99736.69;5120076;27;20055;-70
2024/03/03 00:08:23;;;;;;;8.25;4.20;;;;;;;10.68;100.00;99735.06;5111255;28;20460;-70
2024/03/03 00:11:11;;;;;;;12.18;4.35;;;;;;;10.68;100.00;99735.06;5096389;28;20448;-70
2024/03/03 00:13:59;;;;;;;7.10;4.18;;;;;;;10.67;100.00;99734.25;5111722;28;20054;-69
2024/03/03 00:16:47;;;;;;;6.65;3.92;;;;;;;10.65;100.00;99731.84;5065023;28;20040;-70
2024/03/03 00:19:35;;;;;;;7.40;3.97;;;;;;;10.66;100.00;99729.91;5091227;28;20048;-70
2024/03/03 00:22:23;;;;;;;7.78;4.00;;;;;;;10.66;100.00;99728.00;5076332;28;20063;-70
2024/03/03 00:25:11;;;;;;;10.75;4.53;;;;;;;10.68;100.00;99718.72;5073237;28;20047;-70
2024/03/03 00:27:59;;;;;;;6.07;4.05;;;;;;;10.68;100.00;99724.16;5090905;28;20055;-70
2024/03/03 00:30:48;;;;;;;6.50;4.18;;;;;;;10.68;100.00;99724.16;5076140;28;20044;-70
2024/03/03 00:33:36;;;;;;;6.07;3.65;;;;;;;10.68;100.00;99725.00;5104967;28;20063;-70
2024/03/03 00:36:24;;;;;;;7.43;3.78;;;;;;;10.69;100.00;99726.59;5089747;28;20153;-70
2024/03/03 00:39:12;;;;;;;5.90;3.63;;;;;;;10.69;100.00;99721.16;5111996;28;20052;-70
2024/03/03 00:42:00;;;;;;;5.85;3.65;;;;;;;10.69;100.00;99721.16;5111723;28;20100;-70
2024/03/03 00:44:48;;;;;;;6.55;3.83;;;;;;;10.70;100.00;99716.50;5115480;27;20047;-70
2024/03/03 00:47:37;;;;;;;8.40;4.07;;;;;;;10.71;100.00;99720.88;5097433;28;20062;-70
2024/03/03 00:50:25;;;;;;;7.13;4.25;;;;;;;10.72;100.00;99723.28;5098428;28;20089;-71
2024/03/03 00:53:13;;;;;;;6.97;3.83;;;;;;;10.74;100.00;99717.53;5110559;28;20456;-69
2024/03/03 00:56:01;;;;;;;10.40;3.90;;;;;;;10.75;100.00;99725.44;5094552;28;20134;-69
2024/03/03 00:58:49;;;;;;;5.75;3.50;;;;;;;10.74;100.00;99718.34;5111568;28;20060;-70
2024/03/03 01:01:37;;;;;;;7.07;3.47;;;;;;;10.74;100.00;99721.06;5082987;28;20548;-70
2024/03/03 01:04:25;;;;;;;6.30;3.72;;;;;;;10.77;100.00;99722.38;5111415;28;20074;-70
2024/03/03 01:07:15;;;;;;;6.05;3.60;;;;;;;10.75;100.00;99728.16;5102572;28;20151;-71
2024/03/03 01:10:04;;;;;;;8.32;3.65;;;;;;;10.75;100.00;99730.03;5083250;28;20044;-70
2024/03/03 01:12:52;;;;;;;7.65;3.78;;;;;;;10.73;100.00;99730.34;5120542;27;20036;-70
2024/03/03 01:15:40;;;;;;;6.38;3.90;;;;;;;10.70;100.00;99727.41;5072808;28;20040;-70
2024/03/03 01:18:29;;;;;;;6.55;3.90;;;;;;;10.69;100.00;99736.69;5110840;28;20054;-70
2024/03/03 01:21:19;;;;;;;15.15;4.15;;;;;;;10.66;100.00;99738.09;5082665;28;20065;-70
2024/03/03 01:24:07;;;;;;;7.78;4.00;;;;;;;10.66;100.00;99735.38;5110860;28;20051;-70
2024/03/03 01:26:56;;;;;;;5.90;3.90;;;;;;;10.66;100.00;99741.63;5093377;28;20123;-69
2024/03/03 01:29:44;;;;;;;7.07;3.97;;;;;;;10.65;100.00;99737.28;5062875;28;20040;-70
2024/03/03 01:32:33;;;;;;;8.10;4.50;;;;;;;10.65;100.00;99736.47;5064358;28;20097;-70
2024/03/03 01:35:21;;;;;;;6.15;3.60;;;;;;;10.64;100.00;99741.09;5082079;28;20051;-70
2024/03/03 01:38:09;;;;;;;6.07;3.65;;;;;;;10.65;100.00;99740.00;5085656;28;20055;-70
2024/03/03 01:40:57;;;;;;;8.32;4.05;;;;;;;10.66;100.00;99744.34;5062483;28;20074;-70
2024/03/03 01:43:45;;;;;;;11.70;4.57;;;;;;;10.66;100.00;99740.81;5089891;28;20127;-70
2024/03/03 01:46:33;;;;;;;6.38;4.20;;;;;;;10.65;100.00;99737.28;5076344;28;20123;-71
2024/03/03 01:49:21;;;;;;;9.00;4.40;;;;;;;10.64;100.00;99735.66;5089632;28;20050;-69
2024/03/03 01:52:11;;;;;;;7.22;4.10;;;;;;;10.63;100.00;99734.03;5110164;28;20500;-70
2024/03/03 01:54:59;;;;;;;8.10;4.28;;;;;;;10.61;100.00;99733.53;5094788;28;20443;-70
2024/03/03 01:57:48;;;;;;;7.40;4.18;;;;;;;10.58;100.00;99723.22;5097138;28;20055;-71
2024/03/03 02:00:37;;;;;;;9.77;4.50;;;;;;;10.55;100.00;99729.25;5062186;28;20055;-70
2024/03/03 02:03:25;;;;;;;7.68;4.40;;;;;;;10.53;100.00;99728.72;5086533;28;20036;-70
2024/03/03 02:06:15;;;;;;;9.20;4.38;;;;;;;10.50;100.00;99723.88;5094517;28;20044;-71
2024/03/03 02:09:03;;;;;;;6.93;4.03;;;;;;;10.49;100.00;99727.72;5078131;28;20082;-71
2024/03/03 02:11:51;;;;;;;7.18;4.25;;;;;;;10.49;100.00;99721.47;5077611;28;20182;-70
2024/03/03 02:14:39;;;;;;;7.25;4.43;;;;;;;10.49;100.00;99722.28;5093400;28;20047;-70
2024/03/03 02:17:27;;;;;;;5.97;3.72;;;;;;;10.50;100.00;99723.88;5098738;27;20073;-71
2024/03/03 02:20:15;;;;;;;9.43;4.60;;;;;;;10.51;100.00;99720.06;5079344;28;20544;-71
2024/03/03 02:23:04;;;;;;;8.20;4.65;;;;;;;10.51;100.00;99725.50;5092624;28;20047;-70
2024/03/03 02:25:51;;;;;;;7.18;4.60;;;;;;;10.49;100.00;99721.47;5102118;28;20043;-70
2024/03/03 02:28:41;;;;;;;9.70;4.75;;;;;;;10.46;100.00;99728.28;5097293;27;20131;-69
2024/03/03 02:31:32;;;;;;;7.68;4.30;;;;;;;10.42;100.00;99728.06;5112721;28;20531;-70
2024/03/03 02:34:21;;;;;;;7.38;4.35;;;;;;;10.40;100.00;99718.59;5117572;27;20110;-70
2024/03/03 02:37:09;;;;;;;8.43;4.78;;;;;;;10.42;100.00;99721.81;5084043;28;20048;-67
2024/03/03 02:39:57;;;;;;;8.20;4.88;;;;;;;10.40;100.00;99715.84;5097615;28;20197;-70
2024/03/03 02:42:45;;;;;;;8.50;4.75;;;;;;;10.37;100.00;99727.34;5099974;28;20051;-71
2024/03/03 02:45:33;;;;;;;8.65;4.68;;;;;;;10.36;100.00;99733.88;5092484;28;20028;-70
2024/03/03 02:48:21;;;;;;;7.72;4.57;;;;;;;10.33;100.00;99729.03;5113097;28;20075;-70
2024/03/03 02:51:10;;;;;;;9.38;4.68;;;;;;;10.30;100.00;99737.78;5098567;28;20432;-70
2024/03/03 02:53:57;;;;;;;7.78;5.15;;;;;;;10.29;100.00;99725.25;5094034;28;20039;-71
2024/03/03 02:56:45;;;;;;;7.15;4.65;;;;;;;10.28;100.00;99731.78;5112650;28;20456;-70
2024/03/03 02:59:33;;;;;;;7.05;4.47;;;;;;;10.28;100.00;99723.63;5081332;28;20127;-71
2024/03/03 03:02:22;;;;;;;9.23;5.15;;;;;;;10.29;100.00;99727.97;5082397;27;20044;-71
2024/03/03 03:05:10;;;;;;;8.25;4.90;;;;;;;10.28;100.00;99737.25;5126801;27;20509;-70
2024/03/03 03:07:58;;;;;;;9.38;4.97;;;;;;;10.27;100.00;99727.44;5100750;28;20050;-70
2024/03/03 03:10:46;;;;;;;9.48;4.93;;;;;;;10.28;100.00;99729.06;5099495;28;20381;-69
2024/03/03 03:13:34;;;;;;;8.60;5.00;;;;;;;10.28;100.00;99732.63;5099031;28;20051;-70
2024/03/03 03:16:24;;;;;;;9.60;5.20;;;;;;;10.29;100.00;99736.16;5094041;28;20052;-70
2024/03/03 03:19:13;;;;;;;8.90;5.03;;;;;;;10.30;100.00;99735.06;5097484;28;20081;-70
2024/03/03 03:22:01;;;;;;;9.63;4.95;;;;;;;10.30;100.00;99735.06;5097750;28;20047;-70
2024/03/03 03:24:49;;;;;;;8.18;4.70;;;;;;;10.27;100.00;99725.53;5084022;28;20108;-70
2024/03/03 03:27:37;;;;;;;7.80;4.78;;;;;;;10.28;100.00;99726.34;5114239;27;20036;-71
2024/03/03 03:30:25;;;;;;;7.93;4.82;;;;;;;10.29;100.00;99722.53;5113167;28;20504;-70
2024/03/03 03:33:13;;;;;;;9.40;5.65;;;;;;;10.28;100.00;99715.47;5099520;28;20043;-69
2024/03/03 03:36:01;;;;;;;10.52;5.05;;;;;;;10.28;100.00;99716.28;5112942;28;20035;-70
2024/03/03 03:38:49;;;;;;;8.73;5.25;;;;;;;10.29;100.00;99717.09;5090943;28;20040;-70
2024/03/03 03:41:47;;;;;;;8.95;5.13;;;;;;;10.28;100.00;99715.47;5078392;28;20132;-70
2024/03/03 03:44:35;;;;;;;11.23;5.38;;;;;;;10.26;100.00;99715.75;5083600;28;20067;-69
2024/03/03 03:47:23;;;;;;;9.52;5.70;;;;;;;10.26;100.00;99725.81;5098082;28;20059;-70
2024/03/03 03:50:11;;;;;;;13.57;5.68;;;;;;;10.27;100.00;99735.59;5080262;28;20460;-70
2024/03/03 03:52:59;;;;;;;9.82;6.20;;;;;;;10.26;100.00;99729.34;5093286;28;20137;-70
2024/03/03 03:55:47;;;;;;;11.35;6.25;;;;;;;10.26;100.00;99717.66;5105752;28;20521;-70
2024/03/03 03:58:35;;;;;;;10.93;5.80;;;;;;;10.22;100.00;99723.69;5112285;27;20048;-67
2024/03/03 04:01:23;;;;;;;11.02;6.60;;;;;;;10.21;100.00;99724.78;5082463;28;20035;-72
2024/03/03 04:04:12;;;;;;;12.75;6.40;;;;;;;10.17;100.00;99737.38;5112341;28;20120;-71
2024/03/03 04:07:04;;;;;;;10.43;6.07;;;;;;;10.15;100.00;99731.41;5098791;28;20055;-71
2024/03/03 04:09:52;;;;;;;10.27;6.70;;;;;;;10.11;100.00;99735.81;5111076;27;20062;-71
2024/03/03 04:12:40;;;;;;;11.27;6.80;;;;;;;10.04;100.00;99732.63;5083662;28;20093;-71
2024/03/03 04:15:28;;;;;;;11.20;5.88;;;;;;;10.02;100.00;99743.00;5083650;28;20039;-71
2024/03/03 04:18:16;;;;;;;9.85;6.20;;;;;;;10.05;100.00;99741.59;5110423;28;20069;-70
2024/03/03 04:21:05;;;;;;;11.45;6.22;;;;;;;10.05;100.00;99745.13;5076924;28;20039;-70
2024/03/03 04:23:53;;;;;;;11.48;6.95;;;;;;;10.02;100.00;99740.28;5100083;27;20130;-71
2024/03/03 04:26:45;;;;;;;12.20;7.22;;;;;;;9.98;100.00;99739.22;5112456;27;20414;-71
2024/03/03 04:29:33;;;;;;;11.23;7.20;;;;;;;9.99;100.00;99741.66;5101913;28;20131;-71
2024/03/03 04:32:21;;;;;;;11.77;6.63;;;;;;;9.99;100.00;99743.59;5078964;28;20047;-71
2024/03/03 04:35:09;;;;;;;11.15;6.28;;;;;;;9.97;100.00;99748.50;5096500;28;20050;-71
2024/03/03 04:37:57;;;;;;;11.38;6.78;;;;;;;9.94;100.00;99744.44;5095659;28;20040;-71
2024/03/03 04:40:44;;;;;;;10.85;6.85;;;;;;;9.93;100.00;99753.72;5075744;28;20052;-71
2024/03/03 04:43:32;;;;;;;9.40;6.22;;;;;;;9.95;100.00;99750.69;5095266;27;20079;-71
2024/03/03 04:46:20;;;;;;;9.60;6.05;;;;;;;9.96;100.00;99757.78;5113586;27;20131;-71
2024/03/03 04:49:09;;;;;;;11.38;6.68;;;;;;;9.94;100.00;99746.38;5094661;28;20535;-71
2024/03/03 04:51:57;;;;;;;11.65;7.25;;;;;;;9.92;100.00;99754.81;5090887;28;20040;-71
2024/03/03 04:54:45;;;;;;;12.40;6.85;;;;;;;9.93;100.00;99758.34;5079888;28;20197;-71
2024/03/03 04:57:33;;;;;;;17.17;7.28;;;;;;;9.92;100.00;99767.63;5100001;28;20051;-71
2024/03/03 05:00:21;;;;;;;12.27;7.57;;;;;;;9.88;100.00;99766.56;5109578;28;20531;-71
2024/03/03 05:03:09;;;;;;;11.48;7.05;;;;;;;9.85;100.00;99778.84;5109720;28;20042;-71
2024/03/03 05:05:57;;;;;;;11.38;6.93;;;;;;;9.81;100.00;99786.78;5110518;28;20036;-71
2024/03/03 05:08:45;;;;;;;9.70;6.90;;;;;;;9.79;100.00;99791.69;5111560;28;20051;-71
2024/03/03 05:11:33;;;;;;;12.38;7.45;;;;;;;9.80;100.00;99792.50;5107436;28;20051;-72
2024/03/03 05:14:21;;;;;;;12.55;7.90;;;;;;;9.79;100.00;99799.84;5109831;28;20643;-71
2024/03/03 05:17:09;;;;;;;11.93;7.22;;;;;;;9.82;100.00;99802.00;5077164;28;20055;-71
2024/03/03 05:19:57;;;;;;;11.93;7.63;;;;;;;9.87;100.00;99808.47;5089480;28;20055;-71
2024/03/03 05:22:45;;;;;;;11.48;6.80;;;;;;;9.87;100.00;99813.94;5111240;28;20050;-71
2024/03/03 05:25:33;;;;;;;10.95;7.38;;;;;;;9.89;100.00;99814.44;5110121;28;20048;-72
2024/03/03 05:28:21;;;;;;;11.20;7.38;;;;;;;9.91;100.00;99814.94;5124693;27;20068;-71
2024/03/03 05:31:09;;;;;;;13.60;8.05;;;;;;;9.87;100.00;99819.38;5079252;28;20054;-71
2024/03/03 05:33:57;;;;;;;10.80;7.40;;;;;;;9.84;100.00;99814.47;5110233;28;20131;-71
2024/03/03 05:36:46;;;;;;;11.00;7.13;;;;;;;9.83;100.00;99819.13;5081121;28;20059;-71
2024/03/03 05:39:34;;;;;;;15.10;7.85;;;;;;;9.84;100.00;99815.31;5088707;28;20066;-71
2024/03/03 05:42:22;;;;;;;13.85;7.75;;;;;;;9.83;100.00;99816.41;5091018;28;20082;-71
2024/03/03 05:45:10;;;;;;;12.32;7.43;;;;;;;9.83;100.00;99830.00;5105221;28;20101;-71
2024/03/03 05:47:58;;;;;;;12.45;8.50;;;;;;;9.82;100.00;99828.38;5110833;28;20527;-71
2024/03/03 05:50:46;;;;;;;11.93;7.80;;;;;;;9.81;100.00;99833.03;5110158;28;20512;-70
2024/03/03 05:53:33;;;;;;;12.02;7.47;;;;;;;9.80;100.00;99828.66;5081717;28;20039;-70
2024/03/03 05:56:21;;;;;;;11.02;7.38;;;;;;;9.79;100.00;99835.22;5082712;28;20066;-70
2024/03/03 05:59:09;;;;;;;12.25;7.50;;;;;;;9.77;100.00;99845.56;5108324;28;20478;-70
2024/03/03 06:01:58;;;;;;;12.95;8.18;;;;;;;9.76;100.00;99841.22;5081194;28;20043;-70
2024/03/03 06:04:46;;;;;;;12.68;7.43;;;;;;;9.79;100.00;99851.53;5095232;28;20184;-70
2024/03/03 06:07:34;;;;;;;13.63;8.30;;;;;;;9.82;100.00;99856.41;5097765;28;20131;-71
2024/03/03 06:10:22;;;;;;;13.35;7.93;;;;;;;9.82;100.00;99845.50;5093502;28;20131;-70
2024/03/03 06:13:10;;;;;;;12.80;8.50;;;;;;;9.80;100.00;99825.94;5110407;28;20069;-70
2024/03/03 06:15:58;;;;;;;13.32;8.55;;;;;;;9.74;100.00;99821.66;5110626;28;20039;-69
2024/03/03 06:18:46;;;;;;;15.23;7.93;;;;;;;9.73;100.00;99830.09;5067971;28;20051;-70
2024/03/03 06:21:34;;;;;;;13.88;8.02;;;;;;;9.73;100.00;99838.25;5094530;28;20050;-69
2024/03/03 06:24:22;;;;;;;15.65;8.63;;;;;;;9.70;100.00;99849.72;5109679;28;20093;-70
2024/03/03 06:27:12;;;;;;;12.65;8.40;;;;;;;9.66;100.00;99848.66;5094532;28;20054;-67
2024/03/03 06:30:00;;;;;;;11.27;7.85;;;;;;;9.63;100.00;99852.78;5081454;28;20048;-67
2024/03/03 06:32:48;;;;;;;12.85;7.90;;;;;;;9.59;100.00;99851.72;5109178;28;20054;-69
2024/03/03 06:35:36;;;;;;;13.68;7.88;;;;;;;9.59;100.00;99857.16;5105172;28;20075;-67
2024/03/03 06:38:24;;;;;;;12.77;8.07;;;;;;;9.61;100.00;99857.69;5095820;28;20511;-68
2024/03/03 06:41:15;;;;;;;16.13;9.30;;;;;;;9.60;100.00;99869.66;5093675;28;20048;-68
2024/03/03 06:44:05;;;;;;;13.35;9.55;;;;;;;9.56;100.00;99871.31;5114798;28;20062;-68
2024/03/03 06:46:53;;;;;;;16.08;8.63;;;;;;;9.55;100.00;99877.88;5081496;28;20059;-67
2024/03/03 06:49:41;;;;;;;15.57;8.90;;;;;;;9.51;100.00;99876.81;5096769;28;20040;-68
2024/03/03 06:52:30;;;;;;;12.75;8.35;;;;;;;9.55;100.00;99886.03;5096795;28;20055;-68
2024/03/03 06:55:18;;;;;;;11.88;8.25;;;;;;;9.59;100.00;99885.16;5096619;28;20054;-64
2024/03/03 06:58:08;;;;;;;15.73;8.98;;;;;;;9.63;100.00;99885.41;5116167;28;20051;-61
2024/03/03 07:00:56;;;;;;;12.63;8.55;;;;;;;9.64;100.00;99897.91;5112474;28;20052;-68
2024/03/03 07:06:52;;;;;;;13.45;8.63;;;;;;;9.67;100.00;99904.66;5128061;27;20100;-65
2024/03/03 07:09:41;;;;;;;13.80;9.20;;;;;;;9.68;100.00;99909.84;4412406;28;10000791;-68
2024/03/03 07:12:28;;;;;;;12.77;8.40;;;;;;;9.69;100.00;99906.03;5113863;27;20414;-68
2024/03/03 07:15:17;;;;;;;15.02;8.63;;;;;;;9.71;100.00;99914.69;5116610;27;20051;-69
2024/03/03 07:18:05;;;;;;;11.43;7.30;;;;;;;9.74;100.00;99918.75;5130216;27;20229;-68
2024/03/03 07:20:54;;;;;;;12.63;8.13;;;;;;;9.78;100.00;99915.19;5121286;27;20043;-69
2024/03/03 07:23:42;;;;;;;11.93;7.93;;;;;;;9.80;100.00;99923.88;5092417;27;20047;-69
2024/03/03 07:26:31;;;;;;;13.25;7.57;;;;;;;9.80;100.00;99923.88;5101014;27;20047;-69
2024/03/03 07:29:19;;;;;;;14.65;8.20;;;;;;;9.81;100.00;99922.81;5076251;28;20040;-68
2024/03/03 07:32:07;;;;;;;13.65;7.97;;;;;;;9.81;100.00;99920.09;5094791;28;20052;-69
2024/03/03 07:34:56;;;;;;;13.23;8.45;;;;;;;9.81;100.00;99928.25;5074577;28;20132;-68
2024/03/03 07:37:44;;;;;;;11.80;7.70;;;;;;;9.82;100.00;99932.56;5060487;28;20113;-68
2024/03/03 07:40:36;;;;;;;12.30;7.90;;;;;;;9.84;100.00;99918.69;5108482;28;20059;-69
2024/03/03 07:43:26;;;;;;;12.48;7.78;;;;;;;9.85;100.00;99917.59;5121367;27;20050;-68
2024/03/03 07:46:14;;;;;;;13.63;7.97;;;;;;;9.88;100.00;99929.81;5115204;27;20075;-68
2024/03/03 07:49:03;;;;;;;13.35;8.18;;;;;;;9.90;100.00;99925.69;5122694;27;20051;-68
2024/03/03 07:51:51;;;;;;;12.85;8.60;;;;;;;9.91;100.00;99919.19;5081558;28;20559;-66
2024/03/03 07:54:39;;;;;;;17.25;9.30;;;;;;;9.94;100.00;99905.00;5110040;27;20228;-67
2024/03/03 07:57:27;;;;;;;15.32;8.45;;;;;;;9.96;100.00;99899.28;5094125;28;20047;-67
2024/03/03 08:00:16;;;;;;;12.82;7.93;;;;;;;9.97;100.00;99888.09;5093645;28;20051;-68
2024/03/03 08:03:05;;;;;;;14.32;7.82;;;;;;;9.99;100.00;99879.66;5094572;28;20047;-68
2024/03/03 08:05:53;;;;;;;15.38;7.90;;;;;;;10.01;100.00;99874.72;5073718;28;20100;-68
2024/03/03 08:08:41;;;;;;;13.52;7.32;;;;;;;10.05;100.00;99889.38;5077805;28;20047;-73
2024/03/03 08:11:29;;;;;;;13.05;8.43;;;;;;;10.07;100.00;99884.44;5098946;28;20393;-67
2024/03/03 08:14:17;;;;;;;14.50;8.90;;;;;;;10.09;100.00;99871.38;5081712;28;20039;-68
2024/03/03 08:17:05;;;;;;;15.80;9.40;;;;;;;10.11;100.00;99862.94;5109177;28;20090;-68
2024/03/03 08:19:54;;;;;;;15.48;8.77;;;;;;;10.11;100.00;99858.28;5103331;28;20510;-69
2024/03/03 08:22:43;;;;;;;13.07;8.63;;;;;;;10.17;100.00;99872.66;5112758;28;20050;-66
2024/03/03 08:25:31;;;;;;;13.75;8.70;;;;;;;10.20;100.00;99878.34;5097244;28;20149;-68
2024/03/03 08:28:19;;;;;;;12.75;8.60;;;;;;;10.24;100.00;99876.63;5077038;28;20059;-68
2024/03/03 08:31:07;;;;;;;13.10;7.85;;;;;;;10.28;100.00;99879.66;5077002;28;20424;-67
2024/03/03 08:33:55;;;;;;;14.38;7.85;;;;;;;10.33;100.00;99889.66;5076470;28;20048;-68
2024/03/03 08:36:43;;;;;;;16.90;7.72;;;;;;;10.37;100.00;99915.22;5099420;27;20066;-68
2024/03/03 08:39:31;;;;;;;13.30;8.40;;;;;;;10.41;100.00;99940.75;5132895;27;20058;-68
2024/03/03 08:42:19;;;;;;;13.68;8.65;;;;;;;10.44;100.00;99948.38;5117338;27;20514;-68
2024/03/03 08:45:07;;;;;;;14.40;8.88;;;;;;;10.44;100.00;99943.72;5130959;27;20074;-67
2024/03/03 08:47:55;;;;;;;12.95;7.85;;;;;;;10.45;100.00;99941.81;5091625;28;20058;-67
2024/03/03 08:50:45;;;;;;;14.35;8.80;;;;;;;10.45;100.00;99945.34;5090523;28;20055;-68
2024/03/03 08:53:33;;;;;;;14.52;9.77;;;;;;;10.45;100.00;99944.53;5077202;28;20060;-68
2024/03/03 08:56:22;;;;;;;16.55;10.20;;;;;;;10.42;100.00;99953.28;5102326;27;20115;-68
2024/03/03 08:59:10;;;;;;;16.23;10.40;;;;;;;10.37;100.00;99958.78;5131859;27;20046;-67
2024/03/03 09:01:58;;;;;;;14.23;10.32;;;;;;;10.31;100.00;99949.03;5102814;27;20051;-69
2024/03/03 09:04:46;;;;;;;17.92;10.48;;;;;;;10.28;100.00;99955.03;5116640;27;20097;-69
2024/03/03 09:07:35;;;;;;;16.77;9.50;;;;;;;10.26;100.00;99944.44;5082897;28;20131;-69
2024/03/03 09:10:23;;;;;;;15.68;10.00;;;;;;;10.24;100.00;99947.44;5076243;28;20044;-68
2024/03/03 09:13:11;;;;;;;14.93;10.00;;;;;;;10.26;100.00;99962.69;5089679;28;20051;-68
2024/03/03 09:16:00;;;;;;;15.65;9.98;;;;;;;10.28;100.00;99972.22;5089470;28;20048;-68
2024/03/03 09:18:49;;;;;;;17.25;9.98;;;;;;;10.32;100.00;99977.88;5093465;28;20047;-68
2024/03/03 09:21:39;;;;;;;17.08;10.60;;;;;;;10.36;100.00;99974.28;5096606;28;20051;-68
2024/03/03 09:24:28;;;;;;;18.38;10.93;;;;;;;10.40;100.00;99980.00;5084227;28;20439;-68
2024/03/03 09:27:17;;;;;;;16.38;10.35;;;;;;;10.45;100.00;99977.22;5096862;28;20419;-69
2024/03/03 09:30:06;;;;;;;17.85;11.20;;;;;;;10.47;100.00;99982.38;5097862;28;20454;-68
2024/03/03 09:32:56;;;;;;;16.30;11.35;;;;;;;10.49;100.00;99991.09;5111650;28;20507;-68
2024/03/03 09:35:44;;;;;;;16.30;9.85;;;;;;;10.54;100.00;99983.66;5083270;28;20050;-67
2024/03/03 09:38:32;;;;;;;17.25;11.18;;;;;;;10.58;100.00;99992.91;5110530;28;20039;-69
2024/03/03 09:41:21;;;;;;;15.80;11.10;;;;;;;10.61;100.00;99978.69;5096157;28;20072;-68
2024/03/03 09:44:20;;;;;;;17.23;10.93;;;;;;;10.63;100.00;99984.66;5109586;28;20044;-69
2024/03/03 09:47:10;;;;;;;14.93;10.63;;;;;;;10.66;100.00;99992.25;5110259;28;20055;-69
2024/03/03 09:49:59;;;;;;;16.52;10.70;;;;;;;10.71;100.00;99987.84;5095677;28;20084;-68
2024/03/03 09:52:48;;;;;;;18.80;11.32;;;;;;;10.75;100.00;99992.44;5082075;28;20055;-69
2024/03/03 09:55:39;;;;;;;19.15;12.13;;;;;;;10.80;100.00;99977.91;5095846;28;20039;-69
2024/03/03 09:58:27;;;;;;;17.52;10.77;;;;;;;10.84;100.00;99973.53;5081826;28;20099;-68
2024/03/03 10:01:15;;;;;;;20.55;12.25;;;;;;;10.89;100.00;99970.72;5100914;28;20051;-69
2024/03/03 10:04:06;;;;;;;17.80;10.90;;;;;;;10.91;100.00;99970.44;5102662;28;20070;-69
2024/03/03 10:06:56;;;;;;;15.93;11.43;;;;;;;10.92;100.00;99964.72;5117346;28;20054;-69
2024/03/03 10:09:50;;;;;;;17.58;10.82;;;;;;;10.93;100.00;99963.59;5104556;28;20119;-69
2024/03/03 10:12:41;;;;;;;15.55;10.48;;;;;;;10.99;100.00;99961.63;5096624;28;20071;-68
2024/03/03 10:15:34;;;;;;;19.25;11.48;;;;;;;11.02;100.00;99961.84;5095399;28;20044;-67
2024/03/03 10:18:22;;;;;;;17.65;11.38;;;;;;;11.12;100.00;99962.84;5096503;28;20050;-68
2024/03/03 10:21:14;;;;;;;15.23;9.93;;;;;;;11.17;100.00;99971.75;5075791;28;20131;-69
2024/03/03 10:24:24;;;;;;;15.20;10.10;;;;;;;11.22;100.00;99976.34;5075381;28;20036;-68
2024/03/03 10:27:16;;;;;;;19.30;11.60;;;;;;;11.25;100.00;99987.44;5076217;28;20105;-68
2024/03/03 10:30:09;;;;;;;16.85;10.75;;;;;;;11.27;100.00;99984.44;5109122;28;20514;-68
2024/03/03 10:33:04;;;;;;;18.83;11.38;;;;;;;11.29;100.00;99976.78;5098913;28;20530;-67
2024/03/03 10:36:13;;;;;;;17.25;11.40;;;;;;;11.30;100.00;99981.13;5101279;28;20066;-68
2024/03/03 10:39:01;;;;;;;15.88;10.00;;;;;;;11.32;100.00;99980.84;5116159;27;20055;-68
2024/03/03 10:41:49;;;;;;;16.40;10.68;;;;;;;11.34;100.00;99976.72;5113951;28;20142;-68
2024/03/03 10:44:38;;;;;;;18.05;10.63;;;;;;;11.36;100.00;99976.41;5114054;28;20077;-68
2024/03/03 10:47:26;;;;;;;16.20;10.48;;;;;;;11.38;100.00;99976.94;5114176;28;20051;-68
2024/03/03 10:50:22;;;;;;;17.15;10.82;;;;;;;11.39;100.00;99973.09;5079649;28;20048;-68
2024/03/03 10:53:11;;;;;;;;;;;;;;;11.40;100.00;99963.81;5080072;28;20048;-69
2024/03/03 10:55:59;;;;;;;14.90;10.27;;;;;;;11.42;100.00;99954.22;5093549;28;19928;-68
2024/03/03 10:58:49;;;;;;;15.63;10.50;;;;;;;11.46;100.00;99957.97;5087070;28;20522;-68
2024/03/03 11:01:38;;;;;;;14.38;9.90;;;;;;;11.52;100.00;99950.56;5100362;28;20122;-69
2024/03/03 11:04:30;;;;;;;17.42;10.90;;;;;;;11.58;100.00;99964.91;5087015;28;20040;-68
2024/03/03 11:07:18;;;;;;;16.05;10.75;;;;;;;11.60;100.00;99952.59;5119612;28;20047;-63
2024/03/03 11:10:07;;;;;;;17.33;10.38;;;;;;;11.64;100.00;99944.63;5099073;28;20055;-65
2024/03/03 11:12:56;;;;;;;19.00;10.88;;;;;;;11.68;100.00;99946.47;5115378;28;20044;-67
2024/03/03 11:15:46;;;;;;;15.40;9.85;;;;;;;11.75;100.00;99948.81;5087237;28;20440;-67
2024/03/03 11:18:37;;;;;;;15.85;9.68;;;;;;;11.88;100.00;99956.28;5113259;27;20058;-64
2024/03/03 11:21:29;;;;;;;16.55;9.30;;;;;;;12.00;100.00;99949.53;5130194;28;20071;-67
2024/03/03 11:24:35;;;;;;;11.95;7.63;;;;;;;12.04;100.00;99961.50;5102352;28;20065;-68
2024/03/03 11:27:26;;;;;;;12.40;8.27;;;;;;;12.08;100.00;99962.53;5102640;28;20510;-68
2024/03/03 11:30:14;;;;;;;13.55;8.95;;;;;;;12.14;100.00;99958.56;5116508;27;20040;-69
2024/03/03 11:33:03;;;;;;;15.13;9.05;;;;;;;12.18;100.00;99954.16;5100410;28;20423;-68
2024/03/03 11:35:51;;;;;;;16.38;8.57;;;;;;;12.24;100.00;99947.50;5084833;28;20048;-68
2024/03/03 11:38:47;;;;;;;13.43;8.60;;;;;;;12.30;100.00;99948.19;5097736;28;20124;-68
2024/03/03 11:41:38;;;;;;;15.68;8.70;;;;;;;12.32;100.00;99941.31;5099107;28;20055;-66
2024/03/03 11:44:36;;;;;;;13.88;7.60;;;;;;;12.32;100.00;99935.88;5098042;28;20048;-69
2024/03/03 11:47:29;;;;;;;14.32;7.88;;;;;;;12.33;100.00;99937.47;5112843;28;20405;-69
2024/03/03 11:50:18;;;;;;;12.57;8.10;;;;;;;12.38;100.00;99917.44;5079474;28;20040;-68
2024/03/03 11:53:06;;;;;;;17.30;8.00;;;;;;;12.43;100.00;99919.28;5065516;28;20048;-69
2024/03/03 11:55:55;;;;;;;11.68;7.57;;;;;;;12.47;99.93;99920.28;5096285;28;20126;-69
2024/03/03 11:58:46;;;;;;;11.32;6.57;;;;;;;12.53;97.59;99919.91;5094886;28;20105;-69
2024/03/03 12:01:35;;;;;;;12.88;8.00;;;;;;;12.62;100.00;99922.72;5038489;28;20531;-68
2024/03/03 12:04:23;;;;;;;11.32;6.75;;;;;;;12.60;98.44;99929.59;5077822;28;20146;-69
2024/03/03 12:07:16;;;;;;;11.15;6.20;;;;;;;12.58;97.20;99929.94;5078587;28;20048;-67
2024/03/03 12:10:10;;;;;;;10.60;5.75;;;;;;;12.55;96.33;99922.31;5112548;27;20514;-69
2024/03/03 12:13:00;;;;;;;12.20;5.75;;;;;;;12.53;95.82;99919.06;5084309;28;20047;-68
2024/03/03 12:15:51;;;;;;;7.78;3.72;;;;;;;12.55;93.33;99919.56;5113120;28;20046;-68
2024/03/03 12:18:39;;;;;;;9.85;4.40;;;;;;;12.60;92.56;99918.66;5097807;28;20066;-68
2024/03/03 12:21:27;;;;;;;8.43;4.60;;;;;;;12.61;93.14;99915.66;5087282;28;20474;-67
2024/03/03 12:24:15;;;;;;;8.05;4.85;;;;;;;12.59;93.37;99917.88;5097942;28;20057;-68
2024/03/03 12:27:03;;;;;;;8.90;4.65;;;;;;;12.61;90.66;99920.31;5111015;28;20122;-69
2024/03/03 12:30:05;;;;;;;7.18;3.60;;;;;;;12.67;88.86;99919.88;5116000;27;20065;-68
2024/03/03 12:32:53;;;;;;;7.25;3.88;;;;;;;12.69;88.25;99923.13;5077792;28;20078;-70
2024/03/03 12:35:45;;;;;;;9.63;4.45;;;;;;;12.67;88.61;99919.88;5065242;28;20044;-69
2024/03/03 12:38:33;;;;;;;10.23;4.13;;;;;;;12.67;89.57;99922.63;5091801;28;20514;-69
2024/03/03 12:41:21;;;;;;;9.05;4.18;;;;;;;12.71;88.45;99933.75;5073567;28;20060;-69
2024/03/03 12:44:09;;;;;;;9.25;3.72;;;;;;;12.72;89.19;99922.53;5076084;28;20190;-68
2024/03/03 12:46:57;;;;;;;10.30;4.03;;;;;;;12.78;87.54;99934.16;5076771;28;20060;-69
2024/03/03 12:49:45;;;;;;;8.13;3.78;;;;;;;12.86;85.72;99932.63;5090803;28;20043;-70
2024/03/03 12:52:35;;;;;;;10.77;3.70;;;;;;;12.99;84.66;99931.81;5090755;28;20047;-69
2024/03/03 12:55:26;;;;;;;10.38;4.20;;;;;;;13.07;82.67;99919.34;5054501;28;20507;-69
2024/03/03 12:58:15;;;;;;;10.40;3.80;;;;;;;13.07;83.99;99931.09;5095376;28;20043;-70
2024/03/03 13:01:04;;;;;;;9.77;4.03;;;;;;;13.04;83.57;99923.50;5083513;28;20048;-69
2024/03/03 13:03:53;;;;;;;8.35;3.97;;;;;;;13.04;82.75;99928.97;5063003;28;20035;-68
2024/03/03 13:06:41;;;;;;;11.23;4.03;;;;;;;13.03;84.25;99924.59;5062645;28;20044;-68